Time;durP1;ratioP1;P1;durP2;ratioP2;P2;SDS_P1;SDS_P2;PMS_P1;PMS_P2;Temp;Humidity;BMP_temperature;BMP_pressure;BME280_temperature;BME280_humidity;BME280_pressure;Samples;Min_cycle;Max_cycle;Signal;HPM_P1;HPM_P2
2021/12/03 00:00:47;;;;;;;20.83;8.27;;;-0.40;99.90;;;;;;5096757;28;20138;-69
2021/12/03 00:03:15;;;;;;;19.45;8.35;;;-0.40;99.90;;;;;;5097132;28;20020;-69
2021/12/03 00:05:43;;;;;;;22.80;9.18;;;-0.50;99.90;;;;;;5101738;28;20432;-69
2021/12/03 00:08:11;;;;;;;19.55;7.53;;;-0.60;99.90;;;;;;5101522;28;20028;-69
2021/12/03 00:10:39;;;;;;;20.52;8.15;;;-0.60;99.90;;;;;;5083061;28;20021;-69
2021/12/03 00:13:08;;;;;;;23.52;9.00;;;-0.70;99.90;;;;;;5101006;28;20023;-69
2021/12/03 00:15:36;;;;;;;21.52;8.02;;;-0.70;99.90;;;;;;5099350;28;20020;-69
2021/12/03 00:18:04;;;;;;;23.48;9.85;;;-0.80;99.90;;;;;;5099949;28;20074;-69
2021/12/03 00:20:35;;;;;;;20.45;7.63;;;-0.80;99.90;;;;;;5100520;28;20021;-69
2021/12/03 00:23:05;;;;;;;18.83;8.48;;;-0.80;99.90;;;;;;5099795;28;20439;-69
2021/12/03 00:25:33;;;;;;;21.38;7.68;;;-0.90;99.90;;;;;;5099893;28;20115;-69
2021/12/03 00:28:01;;;;;;;20.88;8.05;;;-0.90;99.90;;;;;;5100488;28;20028;-69
2021/12/03 00:30:28;;;;;;;23.23;8.40;;;-1.00;99.90;;;;;;5100041;28;20301;-69
2021/12/03 00:32:55;;;;;;;23.45;8.40;;;-1.00;99.90;;;;;;5099766;28;20070;-69
2021/12/03 00:35:23;;;;;;;26.40;8.82;;;-1.00;99.90;;;;;;5100523;28;20016;-69
2021/12/03 00:37:55;;;;;;;24.00;9.40;;;-1.10;99.90;;;;;;5100225;28;20016;-69
2021/12/03 00:40:29;;;;;;;24.90;8.65;;;-1.10;99.90;;;;;;5100532;28;20047;-69
2021/12/03 00:42:58;;;;;;;23.10;9.43;;;-1.10;99.90;;;;;;5100493;28;20016;-69
2021/12/03 00:45:25;;;;;;;23.48;8.90;;;-1.20;99.90;;;;;;5100467;28;20016;-69
2021/12/03 00:47:56;;;;;;;21.90;8.25;;;-1.20;99.90;;;;;;5100328;28;20027;-69
2021/12/03 00:50:23;;;;;;;18.98;9.10;;;-1.20;99.90;;;;;;5100351;28;20023;-69
2021/12/03 00:52:52;;;;;;;19.65;8.25;;;-1.20;99.90;;;;;;5081967;28;20020;-69
2021/12/03 00:55:21;;;;;;;20.02;7.70;;;-1.20;99.90;;;;;;5099516;28;20042;-69
2021/12/03 00:57:49;;;;;;;23.23;8.25;;;-1.30;99.90;;;;;;5099079;28;20073;-69
2021/12/03 01:00:23;;;;;;;24.73;8.80;;;-1.30;99.90;;;;;;5099120;28;20130;-69
2021/12/03 01:02:52;;;;;;;25.20;10.35;;;-1.30;99.90;;;;;;5081350;28;20320;-69
2021/12/03 01:05:20;;;;;;;18.77;8.40;;;-1.30;99.90;;;;;;5081124;28;20138;-69
2021/12/03 01:07:47;;;;;;;18.42;8.40;;;-1.30;99.90;;;;;;5099141;28;20420;-69
2021/12/03 01:10:15;;;;;;;20.83;8.77;;;-1.30;99.90;;;;;;5099521;28;20331;-69
2021/12/03 01:12:42;;;;;;;24.75;9.68;;;-1.40;99.90;;;;;;5080971;28;20115;-69
2021/12/03 01:15:13;;;;;;;19.88;7.63;;;-1.30;99.90;;;;;;5099361;28;20043;-69
2021/12/03 01:17:40;;;;;;;19.63;8.52;;;-1.40;99.90;;;;;;5099581;28;20016;-69
2021/12/03 01:20:09;;;;;;;20.55;8.90;;;-1.40;99.90;;;;;;5100285;28;20103;-69
2021/12/03 01:22:37;;;;;;;12.25;6.13;;;-1.40;99.90;;;;;;5100189;28;20107;-69
2021/12/03 01:25:07;;;;;;;17.52;6.95;;;-1.30;99.90;;;;;;5099824;28;20103;-69
2021/12/03 01:27:36;;;;;;;19.83;6.93;;;-1.30;99.90;;;;;;5100088;28;20087;-69
2021/12/03 01:30:07;;;;;;;21.75;8.30;;;-1.30;99.90;;;;;;5081528;28;20489;-69
2021/12/03 01:32:34;;;;;;;18.48;8.50;;;-1.30;99.90;;;;;;5097790;28;20024;-69
2021/12/03 01:35:02;;;;;;;22.55;8.95;;;-1.20;99.90;;;;;;5080750;28;20020;-69
2021/12/03 01:37:29;;;;;;;18.90;8.20;;;-1.20;99.90;;;;;;5098216;28;20024;-69
2021/12/03 01:39:56;;;;;;;25.00;9.20;;;-1.10;99.90;;;;;;5099016;28;20347;-69
2021/12/03 01:42:24;;;;;;;23.83;9.77;;;-1.00;99.90;;;;;;5080426;28;20074;-70
2021/12/03 01:44:52;;;;;;;22.77;8.73;;;-0.90;99.90;;;;;;5080522;28;20028;-70
2021/12/03 01:47:20;;;;;;;21.75;8.85;;;-0.80;99.90;;;;;;5078469;28;20048;-69
2021/12/03 01:49:47;;;;;;;20.42;8.65;;;-0.80;99.90;;;;;;5098217;28;20020;-69
2021/12/03 01:52:15;;;;;;;22.00;9.38;;;-0.70;99.90;;;;;;5097990;28;20024;-69
2021/12/03 01:54:43;;;;;;;27.05;10.68;;;-0.60;99.90;;;;;;5099198;28;20431;-69
2021/12/03 01:57:10;;;;;;;24.65;9.98;;;-0.60;99.90;;;;;;5099222;28;20157;-69
2021/12/03 01:59:38;;;;;;;22.67;9.93;;;-0.50;99.90;;;;;;5098998;28;20032;-69
2021/12/03 02:02:06;;;;;;;27.15;9.20;;;-0.40;99.90;;;;;;5098683;28;20344;-69
2021/12/03 02:04:33;;;;;;;24.90;8.68;;;-0.40;99.90;;;;;;5099290;28;20020;-69
2021/12/03 02:07:00;;;;;;;20.25;7.95;;;-0.40;99.90;;;;;;5098711;28;20032;-69
2021/12/03 02:09:28;;;;;;;25.98;10.60;;;-0.30;99.90;;;;;;5098820;28;20044;-69
2021/12/03 02:11:55;;;;;;;23.27;10.40;;;-0.30;99.90;;;;;;5080767;28;20293;-70
2021/12/03 02:14:22;;;;;;;23.48;10.15;;;-0.30;99.90;;;;;;5098454;28;20095;-69
2021/12/03 02:16:50;;;;;;;18.73;8.23;;;-0.20;99.90;;;;;;5096849;28;20111;-69
2021/12/03 02:19:17;;;;;;;19.77;8.70;;;-0.20;99.90;;;;;;5079616;28;20020;-70
2021/12/03 02:21:45;;;;;;;25.25;10.02;;;-0.10;99.90;;;;;;5097586;28;20020;-69
2021/12/03 02:24:14;;;;;;;22.75;8.85;;;-0.10;99.90;;;;;;5079561;28;20066;-69
2021/12/03 02:26:42;;;;;;;19.58;7.68;;;-0.10;99.90;;;;;;5079175;28;20028;-69
2021/12/03 02:29:09;;;;;;;18.95;8.52;;;0.00;99.90;;;;;;5097473;28;20077;-69
2021/12/03 02:31:36;;;;;;;23.75;10.00;;;0.00;99.90;;;;;;5097905;28;20024;-69
2021/12/03 02:34:04;;;;;;;23.48;10.20;;;0.00;99.90;;;;;;5080322;28;20020;-69
2021/12/03 02:36:32;;;;;;;20.90;9.77;;;0.00;99.90;;;;;;5097832;28;20028;-69
2021/12/03 02:39:00;;;;;;;26.27;11.82;;;0.10;99.90;;;;;;5098758;28;20020;-70
2021/12/03 02:41:27;;;;;;;22.58;9.10;;;0.10;99.90;;;;;;5080131;28;20361;-69
2021/12/03 02:43:55;;;;;;;22.52;9.60;;;0.10;99.90;;;;;;5098356;28;20024;-69
2021/12/03 02:46:22;;;;;;;24.08;9.95;;;0.10;99.90;;;;;;5097860;28;20103;-69
2021/12/03 02:48:50;;;;;;;19.63;9.50;;;0.10;99.90;;;;;;5080107;28;20016;-69
2021/12/03 02:51:18;;;;;;;25.52;10.10;;;0.10;99.90;;;;;;5079850;28;20344;-69
2021/12/03 02:53:45;;;;;;;26.80;10.18;;;0.10;99.90;;;;;;5097209;28;20016;-69
2021/12/03 02:56:12;;;;;;;23.88;10.02;;;0.10;99.90;;;;;;5096527;28;20028;-69
2021/12/03 02:58:40;;;;;;;27.00;9.05;;;0.10;99.90;;;;;;5095807;28;20026;-69
2021/12/03 03:01:09;;;;;;;14.65;7.95;;;0.10;99.90;;;;;;5096192;28;20443;-69
2021/12/03 03:03:37;;;;;;;22.98;9.38;;;0.20;99.90;;;;;;5097081;28;20020;-69
2021/12/03 03:06:07;;;;;;;20.00;10.15;;;0.20;99.90;;;;;;5078849;28;20298;-69
2021/12/03 03:08:39;;;;;;;19.15;7.30;;;0.20;99.90;;;;;;5096762;28;20026;-69
2021/12/03 03:11:07;;;;;;;20.20;8.70;;;0.20;99.90;;;;;;5096810;28;20024;-69
2021/12/03 03:13:35;;;;;;;22.50;10.20;;;0.20;99.90;;;;;;5097984;28;20018;-69
2021/12/03 03:16:04;;;;;;;23.33;10.25;;;0.30;99.90;;;;;;5098260;28;20027;-69
2021/12/03 03:18:32;;;;;;;23.52;8.57;;;0.20;99.90;;;;;;5098559;28;20383;-69
2021/12/03 03:21:02;;;;;;;20.00;9.25;;;0.20;99.90;;;;;;5079742;28;20534;-69
2021/12/03 03:23:31;;;;;;;26.10;11.48;;;0.20;99.90;;;;;;5097757;28;20028;-69
2021/12/03 03:25:59;;;;;;;24.80;9.98;;;0.20;99.90;;;;;;5098122;28;20420;-69
2021/12/03 03:28:26;;;;;;;16.65;8.48;;;0.20;99.90;;;;;;5097536;28;20039;-69
2021/12/03 03:30:55;;;;;;;24.83;10.73;;;0.20;99.90;;;;;;5097532;28;20024;-69
2021/12/03 03:33:23;;;;;;;24.25;11.07;;;0.20;99.90;;;;;;5096716;28;20146;-69
2021/12/03 03:35:50;;;;;;;23.02;10.77;;;0.20;99.90;;;;;;5096508;28;20327;-69
2021/12/03 03:38:18;;;;;;;21.33;10.38;;;0.20;99.90;;;;;;5078853;28;20031;-69
2021/12/03 03:40:47;;;;;;;28.10;11.48;;;0.20;99.90;;;;;;5082769;28;20169;-69
2021/12/03 03:43:16;;;;;;;22.40;10.55;;;0.20;99.90;;;;;;5100699;28;20105;-69
2021/12/03 03:45:44;;;;;;;33.58;11.88;;;0.20;99.90;;;;;;5101165;28;20103;-69
2021/12/03 03:48:12;;;;;;;25.13;11.45;;;0.20;99.90;;;;;;5100546;28;20024;-69
2021/12/03 03:50:40;;;;;;;25.33;12.18;;;0.20;99.90;;;;;;5101080;28;20372;-69
2021/12/03 03:53:08;;;;;;;22.58;10.27;;;0.10;99.90;;;;;;5101521;28;20020;-69
2021/12/03 03:55:36;;;;;;;25.08;10.63;;;0.10;99.90;;;;;;5101906;28;20099;-69
2021/12/03 03:58:04;;;;;;;26.00;12.23;;;0.10;99.90;;;;;;5101537;28;20026;-69
2021/12/03 04:00:41;;;;;;;25.15;11.35;;;0.10;99.90;;;;;;5101368;28;20089;-69
2021/12/03 04:03:09;;;;;;;27.60;12.10;;;0.10;99.90;;;;;;5101216;28;20016;-69
2021/12/03 04:05:37;;;;;;;24.27;12.68;;;0.10;99.90;;;;;;5101190;28;20024;-69
2021/12/03 04:08:05;;;;;;;31.48;12.45;;;0.10;99.90;;;;;;5101056;28;20103;-69
2021/12/03 04:10:32;;;;;;;30.85;12.55;;;0.10;99.90;;;;;;5100146;28;20120;-69
2021/12/03 04:13:00;;;;;;;32.13;12.07;;;0.10;99.90;;;;;;5100205;28;20305;-69
2021/12/03 04:15:28;;;;;;;30.15;13.68;;;0.10;99.90;;;;;;5082111;28;20016;-69
2021/12/03 04:17:55;;;;;;;36.40;10.60;;;0.10;99.90;;;;;;5082338;28;20024;-69
2021/12/03 04:20:23;;;;;;;27.17;9.73;;;0.10;99.90;;;;;;5100338;28;20016;-69
2021/12/03 04:22:52;;;;;;;36.83;13.57;;;0.10;99.90;;;;;;5099841;28;20053;-69
2021/12/03 04:25:21;;;;;;;40.92;14.77;;;0.10;99.90;;;;;;5099808;28;20020;-69
2021/12/03 04:27:50;;;;;;;36.78;13.48;;;0.10;99.90;;;;;;5099780;28;20024;-69
2021/12/03 04:30:26;;;;;;;33.45;11.43;;;0.10;99.90;;;;;;5100427;28;20095;-69
2021/12/03 04:32:55;;;;;;;36.25;14.02;;;0.10;99.90;;;;;;5100699;28;20012;-69
2021/12/03 04:35:24;;;;;;;24.08;11.65;;;0.10;99.90;;;;;;5101145;28;20397;-69
2021/12/03 04:37:52;;;;;;;34.78;12.32;;;0.10;99.90;;;;;;5082453;28;20025;-69
2021/12/03 04:40:21;;;;;;;35.67;13.25;;;0.10;99.90;;;;;;5101175;28;20426;-69
2021/12/03 04:42:49;;;;;;;40.38;15.73;;;0.10;99.90;;;;;;5082472;28;20028;-69
2021/12/03 04:45:21;;;;;;;41.72;15.40;;;0.10;99.90;;;;;;5100960;28;20489;-69
2021/12/03 04:47:51;;;;;;;34.13;11.98;;;0.10;99.90;;;;;;5100124;28;20031;-69
2021/12/03 04:50:20;;;;;;;39.08;13.98;;;0.10;99.90;;;;;;5099445;28;20019;-70
2021/12/03 04:52:48;;;;;;;35.08;13.18;;;0.10;99.90;;;;;;5099611;28;20103;-69
2021/12/03 04:55:17;;;;;;;29.20;12.82;;;0.10;99.90;;;;;;5099573;28;20020;-69
2021/12/03 04:57:44;;;;;;;29.88;12.23;;;0.10;99.90;;;;;;5099287;28;20032;-69
2021/12/03 05:00:18;;;;;;;43.50;13.68;;;0.10;99.90;;;;;;5099001;28;20081;-69
2021/12/03 05:02:46;;;;;;;23.95;10.88;;;0.10;99.90;;;;;;5099174;28;20032;-69
2021/12/03 05:05:18;;;;;;;34.78;14.25;;;0.10;99.90;;;;;;5099217;28;20075;-69
2021/12/03 05:07:58;;;;;;;41.55;13.20;;;0.10;99.90;;;;;;5081108;28;20024;-69
2021/12/03 05:10:37;;;;;;;32.28;11.98;;;0.10;99.90;;;;;;5100229;28;20044;-69
2021/12/03 05:13:14;;;;;;;35.78;12.77;;;0.10;99.90;;;;;;5100889;28;20364;-69
2021/12/03 05:15:42;;;;;;;32.28;12.82;;;0.20;99.90;;;;;;5100150;28;20073;-69
2021/12/03 05:18:13;;;;;;;77.63;32.90;;;0.20;99.90;;;;;;5099814;28;20031;-69
2021/12/03 05:20:42;;;;;;;23.27;11.15;;;0.20;99.90;;;;;;5100305;28;20107;-69
2021/12/03 05:23:09;;;;;;;30.33;12.30;;;0.20;99.90;;;;;;5081787;28;20024;-69
2021/12/03 05:25:38;;;;;;;27.45;11.90;;;0.20;99.90;;;;;;5100148;28;20028;-69
2021/12/03 05:28:06;;;;;;;23.60;8.75;;;0.20;99.90;;;;;;5098683;28;20027;-69
2021/12/03 05:30:34;;;;;;;28.77;12.27;;;0.30;99.90;;;;;;5098923;28;20321;-69
2021/12/03 05:33:02;;;;;;;33.70;12.20;;;0.20;99.90;;;;;;5098773;28;20017;-69
2021/12/03 05:35:29;;;;;;;32.17;12.40;;;0.20;99.90;;;;;;5099111;28;20020;-69
2021/12/03 05:37:57;;;;;;;35.70;14.05;;;0.30;99.90;;;;;;5098400;28;20031;-70
2021/12/03 05:40:25;;;;;;;33.38;13.57;;;0.20;99.90;;;;;;5098703;28;20051;-69
2021/12/03 05:42:53;;;;;;;33.70;12.82;;;0.30;99.90;;;;;;5098393;28;20087;-69
2021/12/03 05:45:30;;;;;;;21.48;9.30;;;0.30;99.90;;;;;;5099068;28;20155;-70
2021/12/03 05:48:00;;;;;;;28.30;10.27;;;0.30;99.90;;;;;;5098818;28;20084;-69
2021/12/03 05:50:28;;;;;;;26.35;10.70;;;0.30;99.90;;;;;;5099679;28;20388;-69
2021/12/03 05:52:57;;;;;;;24.95;10.55;;;0.40;99.90;;;;;;5099042;28;20103;-70
2021/12/03 05:55:25;;;;;;;21.45;9.07;;;0.40;99.90;;;;;;5099156;28;20039;-70
2021/12/03 05:57:53;;;;;;;24.17;10.73;;;0.40;99.90;;;;;;5099067;28;20027;-70
2021/12/03 06:00:30;;;;;;;17.20;9.45;;;0.40;99.90;;;;;;5099230;28;20048;-69
2021/12/03 06:02:59;;;;;;;23.70;10.15;;;0.40;99.90;;;;;;5080178;28;20039;-69
2021/12/03 06:05:28;;;;;;;29.80;12.25;;;0.40;99.90;;;;;;5099342;28;20028;-70
2021/12/03 06:07:56;;;;;;;21.38;10.23;;;0.40;99.90;;;;;;5097523;28;20020;-70
2021/12/03 06:10:26;;;;;;;23.88;10.43;;;0.40;99.90;;;;;;5097716;28;20031;-70
2021/12/03 06:12:54;;;;;;;27.20;10.93;;;0.40;99.90;;;;;;5098254;28;20408;-70
2021/12/03 06:15:22;;;;;;;22.83;9.95;;;0.40;99.90;;;;;;5098214;28;20085;-70
2021/12/03 06:17:49;;;;;;;23.80;11.25;;;0.50;99.90;;;;;;5098163;28;20069;-70
2021/12/03 06:20:18;;;;;;;24.95;9.15;;;0.50;99.90;;;;;;5097672;28;20024;-70
2021/12/03 06:22:46;;;;;;;23.65;8.85;;;0.50;99.90;;;;;;5097564;28;20029;-70
2021/12/03 06:25:15;;;;;;;28.75;9.82;;;0.50;99.90;;;;;;5098169;28;20167;-70
2021/12/03 06:27:42;;;;;;;23.70;10.32;;;0.60;99.90;;;;;;5098307;28;20082;-70
2021/12/03 06:30:13;;;;;;;23.80;10.30;;;0.50;99.90;;;;;;5098578;28;20016;-70
2021/12/03 06:32:41;;;;;;;18.23;8.40;;;0.50;99.90;;;;;;5098938;28;20301;-70
2021/12/03 06:35:13;;;;;;;27.88;9.27;;;0.60;99.90;;;;;;5098257;28;20012;-70
2021/12/03 06:37:42;;;;;;;19.23;7.72;;;0.60;99.90;;;;;;5097928;28;20028;-70
2021/12/03 06:40:13;;;;;;;17.48;8.27;;;0.60;99.90;;;;;;5098296;28;20024;-70
2021/12/03 06:42:41;;;;;;;19.13;7.47;;;0.70;99.90;;;;;;5098464;28;20314;-69
2021/12/03 06:45:10;;;;;;;14.77;7.43;;;0.70;99.90;;;;;;5097662;28;20031;-70
2021/12/03 06:47:37;;;;;;;17.83;7.50;;;0.80;99.90;;;;;;5097104;28;20059;-69
2021/12/03 06:50:08;;;;;;;18.40;7.78;;;0.80;99.90;;;;;;5097260;28;20020;-70
2021/12/03 06:52:39;;;;;;;14.05;6.70;;;0.80;99.90;;;;;;5097011;28;20016;-70
2021/12/03 06:55:11;;;;;;;16.45;6.97;;;0.90;99.90;;;;;;5096834;28;20027;-70
2021/12/03 06:57:41;;;;;;;13.73;7.43;;;0.90;99.90;;;;;;5097148;28;20111;-70
2021/12/03 07:00:10;;;;;;;20.00;9.15;;;0.90;99.90;;;;;;5097005;28;20020;-70
2021/12/03 07:02:37;;;;;;;21.58;8.90;;;0.90;99.90;;;;;;5096806;28;20089;-70
2021/12/03 07:05:05;;;;;;;20.83;9.95;;;0.90;99.90;;;;;;5096994;28;20053;-70
2021/12/03 07:07:33;;;;;;;20.33;7.60;;;0.90;99.90;;;;;;5097419;28;20050;-70
2021/12/03 07:10:03;;;;;;;19.27;7.35;;;0.90;99.90;;;;;;5098481;28;20024;-69
2021/12/03 07:12:31;;;;;;;18.52;9.10;;;0.90;99.90;;;;;;5097727;28;20431;-69
2021/12/03 07:14:59;;;;;;;22.13;8.63;;;1.00;99.90;;;;;;5080065;28;20364;-69
2021/12/03 07:17:30;;;;;;;19.50;8.73;;;1.00;99.90;;;;;;5097481;28;20024;-69
2021/12/03 07:19:58;;;;;;;19.60;9.38;;;1.00;99.90;;;;;;5098210;28;20399;-71
2021/12/03 07:22:26;;;;;;;25.42;9.80;;;1.00;99.90;;;;;;5097932;28;20020;-73
2021/12/03 07:24:53;;;;;;;24.20;10.00;;;1.00;99.90;;;;;;5097131;28;20024;-74
2021/12/03 07:27:21;;;;;;;23.95;10.23;;;1.00;99.90;;;;;;5096791;28;20420;-73
2021/12/03 07:29:49;;;;;;;22.42;9.88;;;1.00;99.90;;;;;;5078597;28;20020;-70
2021/12/03 07:32:18;;;;;;;17.38;8.18;;;1.00;99.90;;;;;;5096595;28;20020;-70
2021/12/03 07:34:46;;;;;;;23.05;7.15;;;1.00;99.90;;;;;;5096537;28;20024;-71
2021/12/03 07:37:14;;;;;;;21.55;7.53;;;1.00;99.90;;;;;;5078573;28;20032;-71
2021/12/03 07:39:44;;;;;;;21.10;8.43;;;1.00;99.90;;;;;;5096359;28;20435;-71
2021/12/03 07:42:11;;;;;;;20.90;9.65;;;1.10;99.90;;;;;;5096387;28;20424;-72
2021/12/03 07:44:38;;;;;;;24.42;10.73;;;1.10;99.90;;;;;;5096998;28;20028;-71
2021/12/03 07:47:06;;;;;;;23.92;9.55;;;1.10;99.90;;;;;;5097776;28;20024;-71
2021/12/03 07:49:34;;;;;;;25.52;10.90;;;1.10;99.90;;;;;;5097342;28;20020;-71
2021/12/03 07:52:02;;;;;;;28.73;11.25;;;1.10;99.90;;;;;;5097641;28;20012;-71
2021/12/03 07:54:29;;;;;;;26.63;10.73;;;1.10;99.90;;;;;;5097386;28;20024;-71
2021/12/03 07:56:57;;;;;;;20.67;8.55;;;1.10;99.90;;;;;;5097260;28;20326;-71
2021/12/03 07:59:24;;;;;;;20.90;9.20;;;1.10;99.90;;;;;;5097529;28;20024;-71
2021/12/03 08:01:52;;;;;;;23.45;9.48;;;1.10;99.90;;;;;;5097058;28;20047;-69
2021/12/03 08:04:19;;;;;;;25.92;10.18;;;1.20;99.90;;;;;;5096799;28;20047;-70
2021/12/03 08:06:51;;;;;;;17.77;8.88;;;1.20;99.90;;;;;;5096017;28;20521;-70
2021/12/03 08:09:22;;;;;;;26.52;10.23;;;1.20;99.90;;;;;;5096996;28;20024;-69
2021/12/03 08:11:50;;;;;;;26.35;10.15;;;1.20;99.90;;;;;;5096175;28;20016;-68
2021/12/03 08:14:17;;;;;;;19.77;9.23;;;1.20;99.90;;;;;;5096220;28;20012;-70
2021/12/03 08:16:45;;;;;;;18.23;9.65;;;1.30;99.90;;;;;;5078227;28;20039;-69
2021/12/03 08:19:13;;;;;;;20.20;8.50;;;1.30;99.90;;;;;;5095900;28;20031;-69
2021/12/03 08:21:40;;;;;;;21.27;8.50;;;1.30;99.90;;;;;;5096492;28;20427;-69
2021/12/03 08:24:08;;;;;;;17.98;8.20;;;1.30;99.90;;;;;;5097350;28;20450;-70
2021/12/03 08:26:36;;;;;;;17.23;8.60;;;1.30;99.90;;;;;;5100588;28;20030;-70
2021/12/03 08:29:05;;;;;;;15.32;6.63;;;1.40;99.90;;;;;;5101330;28;20028;-69
2021/12/03 08:31:32;;;;;;;17.30;7.28;;;1.50;99.90;;;;;;5101295;28;20300;-69
2021/12/03 08:33:59;;;;;;;20.65;7.47;;;1.50;99.90;;;;;;5101112;28;20386;-69
2021/12/03 08:36:27;;;;;;;19.17;8.90;;;1.60;99.90;;;;;;5082465;28;20024;-68
2021/12/03 08:38:54;;;;;;;23.20;8.23;;;1.60;99.90;;;;;;5082576;28;20058;-69
2021/12/03 08:41:21;;;;;;;17.45;6.60;;;1.60;99.90;;;;;;5100851;28;20035;-68
2021/12/03 08:43:49;;;;;;;23.27;9.80;;;1.70;99.90;;;;;;5099370;28;20100;-67
2021/12/03 08:46:24;;;;;;;22.80;9.90;;;1.70;99.90;;;;;;5099448;28;20020;-67
2021/12/03 08:48:52;;;;;;;23.15;10.05;;;1.70;99.90;;;;;;5099866;28;20020;-71
2021/12/03 08:56:33;;;;;;;17.58;8.65;;;1.80;99.90;;;;;;5099622;28;20027;-70
2021/12/03 08:59:01;;;;;;;21.48;7.50;;;1.90;99.90;;;;;;5081412;28;20059;-70
2021/12/03 09:01:28;;;;;;;17.42;8.43;;;2.00;99.90;;;;;;5099195;28;20044;-70
2021/12/03 09:03:55;;;;;;;22.55;7.93;;;2.10;99.90;;;;;;5099379;28;20095;-70
2021/12/03 09:06:23;;;;;;;18.00;8.45;;;2.20;99.90;;;;;;5099732;28;20016;-69
2021/12/03 09:08:50;;;;;;;17.80;7.78;;;2.20;99.90;;;;;;5100380;28;20401;-69
2021/12/03 09:11:18;;;;;;;16.88;7.72;;;2.30;99.90;;;;;;5081987;28;20094;-69
2021/12/03 09:13:47;;;;;;;22.02;8.00;;;2.30;99.90;;;;;;5099947;28;20023;-70
2021/12/03 09:16:18;;;;;;;13.55;6.15;;;2.30;99.90;;;;;;5099628;28;20027;-69
2021/12/03 09:18:47;;;;;;;22.45;9.57;;;2.30;99.90;;;;;;5099908;28;20412;-69
2021/12/03 09:21:20;;;;;;;18.45;6.65;;;2.20;99.90;;;;;;5099017;28;20107;-70
2021/12/03 09:24:09;;;;;;;19.75;8.00;;;2.20;99.90;;;;;;5098730;28;20404;-70
2021/12/03 09:26:40;;;;;;;19.65;7.63;;;2.30;99.90;;;;;;5098654;28;20134;-69
2021/12/03 09:29:11;;;;;;;13.50;6.35;;;2.30;99.90;;;;;;5098465;28;20059;-69
2021/12/03 09:31:47;;;;;;;11.77;5.80;;;2.40;99.90;;;;;;5098586;28;20024;-69
2021/12/03 09:34:18;;;;;;;18.48;7.55;;;2.40;99.90;;;;;;5098469;28;20431;-70
2021/12/03 09:36:46;;;;;;;13.45;7.35;;;2.50;99.90;;;;;;5097567;28;20526;-70
2021/12/03 09:39:19;;;;;;;16.05;7.90;;;2.50;99.90;;;;;;5098430;28;20107;-70
2021/12/03 09:41:49;;;;;;;17.23;7.35;;;2.50;99.90;;;;;;5098817;28;20024;-69
2021/12/03 09:44:17;;;;;;;12.40;6.20;;;2.60;99.90;;;;;;5099282;28;20102;-69
2021/12/03 09:46:45;;;;;;;10.52;5.80;;;2.60;99.90;;;;;;5099164;28;20118;-70
2021/12/03 09:54:27;;;;;;;16.20;6.55;;;2.60;99.90;;;;;;5099132;28;20332;-69
2021/12/03 09:57:08;;;;;;;17.98;6.53;;;2.70;99.90;;;;;;5082548;28;20028;-69
2021/12/03 10:02:50;;;;;;;13.30;6.15;;;2.70;99.90;;;;;;5097737;28;20059;-74
2021/12/03 10:21:44;;;;;;;12.13;5.72;;;2.50;99.90;;;;;;5098544;28;20032;-69
2021/12/03 10:27:40;;;;;;;13.07;7.55;;;2.50;99.90;;;;;;5098930;28;20031;-69
2021/12/03 10:39:03;;;;;;;16.25;6.80;;;2.50;99.90;;;;;;5097314;28;20027;-70
2021/12/03 10:41:40;;;;;;;18.92;8.18;;;2.50;99.90;;;;;;5096990;28;20032;-69
2021/12/03 10:52:21;;;;;;;12.35;5.57;;;2.50;99.90;;;;;;5097039;28;20328;-68
2021/12/03 10:58:19;;;;;;;9.00;4.70;;;2.60;99.90;;;;;;5079896;28;20042;-69
2021/12/03 11:06:38;;;;;;;15.07;6.05;;;2.60;99.90;;;;;;5097879;28;20031;-70
2021/12/03 11:33:58;;;;;;;8.98;4.22;;;3.20;99.90;;;;;;5096608;28;20023;-69
2021/12/03 11:36:40;;;;;;;16.92;5.38;;;3.20;99.90;;;;;;5097110;28;20020;-69
2021/12/03 11:39:44;;;;;;;11.80;4.38;;;3.30;99.90;;;;;;5097507;28;20065;-69
2021/12/03 12:02:51;;;;;;;13.15;3.25;;;3.30;99.90;;;;;;5100288;28;20411;-69
2021/12/03 12:11:15;;;;;;;8.55;2.80;;;3.40;99.90;;;;;;5100839;28;20054;-69
2021/12/03 13:59:29;;;;;;;9.32;2.30;;;3.20;99.90;;;;;;5077954;28;20027;-70
2021/12/03 14:01:34;;;;;;;9.85;2.63;;;3.20;99.90;;;;;;5075816;28;20070;-70
2021/12/03 14:07:09;;;;;;;9.68;2.20;;;3.00;99.90;;;;;;5097971;28;20024;-70
2021/12/03 14:16:11;;;;;;;7.75;2.13;;;2.90;99.90;;;;;;5090468;28;20082;-69
2021/12/03 14:49:05;;;;;;;7.28;1.80;;;2.80;99.90;;;;;;5097980;28;20332;-70
2021/12/03 14:56:38;;;;;;;9.05;2.00;;;2.80;99.90;;;;;;5098278;28;20103;-70
2021/12/03 14:59:23;;;;;;;10.45;2.17;;;2.80;99.90;;;;;;5097912;28;20027;-70
2021/12/03 15:01:58;;;;;;;7.63;2.15;;;2.80;99.90;;;;;;5098103;28;20178;-70
2021/12/03 15:05:08;;;;;;;8.25;1.35;;;2.90;99.90;;;;;;5097721;28;20020;-70
2021/12/03 15:07:31;;;;;;;8.27;2.28;;;2.90;99.90;;;;;;5092119;28;20035;-70
2021/12/03 15:10:03;;;;;;;6.03;2.15;;;2.90;99.90;;;;;;5097126;28;20357;-70
2021/12/03 15:25:36;;;;;;;3.33;1.50;;;2.70;99.90;;;;;;5097177;28;20103;-70
2021/12/03 15:36:04;;;;;;;3.00;1.27;;;2.70;99.90;;;;;;5096865;28;20074;-71
2021/12/03 15:38:44;;;;;;;3.55;1.52;;;2.80;99.90;;;;;;5097451;28;20035;-71
2021/12/03 16:08:25;;;;;;;6.68;2.13;;;2.60;99.90;;;;;;5097090;28;20059;-73
2021/12/03 16:13:46;;;;;;;4.95;1.20;;;2.60;99.90;;;;;;5097205;28;20335;-75
2021/12/03 16:24:38;;;;;;;5.85;1.55;;;2.60;99.90;;;;;;5096639;28;20027;-72
2021/12/03 16:43:46;;;;;;;7.22;1.80;;;2.70;99.90;;;;;;5097224;28;20094;-70
2021/12/03 16:46:38;;;;;;;7.03;2.55;;;2.70;99.90;;;;;;5099061;28;20024;-70
2021/12/03 16:51:42;;;;;;;4.18;1.63;;;2.70;99.90;;;;;;5100553;28;20020;-70
2021/12/03 16:54:17;;;;;;;;;;;2.70;99.90;;;;;;5101318;28;20020;-70
2021/12/03 16:56:51;;;;;;;13.25;4.30;;;2.60;99.90;;;;;;5100870;28;19904;-70
2021/12/03 16:59:21;;;;;;;7.43;3.60;;;2.60;99.90;;;;;;5100206;28;20099;-70
2021/12/03 17:07:59;;;;;;;8.05;2.35;;;2.60;99.90;;;;;;5099028;28;20027;-69
2021/12/03 17:27:01;;;;;;;10.30;3.83;;;2.30;99.90;;;;;;5100045;28;20103;-69
2021/12/03 17:48:42;;;;;;;9.63;3.80;;;2.10;99.90;;;;;;5098598;28;20081;-70
2021/12/03 17:51:25;;;;;;;10.13;4.63;;;2.10;99.90;;;;;;5098244;28;20262;-70
2021/12/03 17:56:27;;;;;;;6.97;2.63;;;2.10;99.90;;;;;;5098417;28;20020;-70
2021/12/03 17:59:20;;;;;;;5.40;2.15;;;2.10;99.90;;;;;;5098523;28;20024;-70
2021/12/03 18:02:12;;;;;;;13.00;2.90;;;2.10;99.90;;;;;;5097896;28;20127;-69
2021/12/03 18:15:33;;;;;;;5.50;2.75;;;1.90;99.90;;;;;;5098195;28;20024;-69
2021/12/03 18:18:22;;;;;;;5.38;2.20;;;1.90;99.90;;;;;;5097468;28;20028;-69
2021/12/03 18:51:21;;;;;;;;;;;1.80;99.90;;;;;;5098805;28;20034;-69
2021/12/03 18:56:47;;;;;;;;;;;1.80;99.90;;;;;;5056037;28;19904;-72
2021/12/03 18:59:15;;;;;;;;;;;1.80;99.90;;;;;;5079966;28;19904;-69
2021/12/03 19:01:42;;;;;;;;;;;1.80;99.90;;;;;;5097580;28;19916;-70
2021/12/03 19:06:44;;;;;;;;;;;1.80;99.90;;;;;;5097465;28;20253;-70
2021/12/03 19:09:20;;;;;;;;;;;1.80;99.90;;;;;;5079270;28;19914;-70
2021/12/03 19:11:57;;;;;;;;;;;1.70;99.90;;;;;;5097381;28;19994;-69
2021/12/03 19:14:26;;;;;;;;;;;1.70;99.90;;;;;;5098289;28;19904;-69
2021/12/03 19:16:53;;;;;;;;;;;1.70;99.90;;;;;;5098621;28;19903;-69
2021/12/03 19:19:20;;;;;;;;;;;1.80;99.90;;;;;;5098425;28;19912;-70
2021/12/03 19:21:48;;;;;;;;;;;1.70;99.90;;;;;;5098566;28;19911;-69
2021/12/03 19:24:16;;;;;;;;;;;1.70;99.90;;;;;;5097432;28;19912;-69
2021/12/03 19:26:44;;;;;;;;;;;1.70;99.90;;;;;;5098462;28;19929;-69
2021/12/03 19:29:12;;;;;;;;;;;1.80;99.90;;;;;;5098012;28;19904;-69
2021/12/03 19:31:40;;;;;;;;;;;1.80;99.90;;;;;;5098296;28;19911;-69
2021/12/03 19:34:07;;;;;;;;;;;1.80;99.90;;;;;;5097200;28;19908;-69
2021/12/03 19:36:38;;;;;;;;;;;1.80;99.90;;;;;;5079239;28;19908;-69
2021/12/03 19:39:07;;;;;;;;;;;1.80;99.90;;;;;;5097186;28;19907;-69
2021/12/03 19:44:13;;;;;;;;;;;1.80;99.90;;;;;;5096945;28;20256;-69
2021/12/03 19:46:45;;;;;;;;;;;1.90;99.90;;;;;;5078864;28;19904;-72
2021/12/03 19:49:32;;;;;;;;;;;1.90;99.90;;;;;;5097434;28;20307;-69
2021/12/03 19:52:07;;;;;;;;;;;1.90;99.90;;;;;;5097099;28;19953;-69
2021/12/03 19:54:35;;;;;;;;;;;1.90;99.90;;;;;;5097993;28;19986;-69
2021/12/03 19:57:02;;;;;;;;;;;1.90;99.90;;;;;;5098299;28;19904;-69
2021/12/03 19:59:30;;;;;;;;;;;1.90;99.90;;;;;;5097740;28;20303;-69
2021/12/03 20:01:58;;;;;;;;;;;1.90;99.90;;;;;;5079799;28;19920;-70
2021/12/03 20:04:25;;;;;;;;;;;1.90;99.90;;;;;;5098168;28;19904;-69
2021/12/03 20:06:52;;;;;;;;;;;1.90;99.90;;;;;;5079123;28;19904;-69
2021/12/03 20:09:27;;;;;;;;;;;1.90;99.90;;;;;;5098155;28;20347;-69
2021/12/03 20:12:04;;;;;;;;;;;1.90;99.90;;;;;;5097266;28;19911;-69
2021/12/03 20:14:32;;;;;;;;;;;1.90;99.90;;;;;;5096651;28;19904;-69
2021/12/03 20:17:05;;;;;;;;;;;1.90;99.90;;;;;;5096621;28;19904;-69
2021/12/03 20:19:38;;;;;;;;;;;2.00;99.90;;;;;;5096611;28;19916;-69